createdAt,value
2023-02-20T00:01:06.047Z,51.53
2023-02-20T00:03:33.647Z,51.33
2023-02-20T00:06:01.195Z,51.66
2023-02-20T00:08:30.224Z,53.25
2023-02-20T00:10:57.838Z,52.41
2023-02-20T00:13:25.438Z,53.11
2023-02-20T00:15:53.016Z,53.57
2023-02-20T00:18:20.650Z,52.85
2023-02-20T00:20:48.214Z,53.35
2023-02-20T00:23:15.798Z,52.83
2023-02-20T00:25:43.321Z,53.74
2023-02-20T00:28:10.920Z,54.41
2023-02-20T00:30:39.554Z,54.04
2023-02-20T00:33:07.336Z,54.10
2023-02-20T00:35:34.972Z,54.30
2023-02-20T00:38:02.458Z,53.24
2023-02-20T00:40:30.048Z,53.40
2023-02-20T00:42:57.596Z,52.78
2023-02-20T00:45:25.170Z,51.90
2023-02-20T00:47:52.757Z,51.35
2023-02-20T00:50:20.324Z,51.25
2023-02-20T00:52:47.916Z,51.00
2023-02-20T00:55:15.538Z,50.85
2023-02-20T00:57:43.298Z,50.94
2023-02-20T01:00:18.223Z,50.94
2023-02-20T01:02:45.894Z,49.77
2023-02-20T01:05:14.167Z,49.53
2023-02-20T01:07:41.861Z,49.03
2023-02-20T01:10:11.496Z,48.16
2023-02-20T01:12:40.965Z,48.56
2023-02-20T01:15:11.830Z,48.16
2023-02-20T01:17:39.466Z,48.21
2023-02-20T01:20:08.651Z,46.26
2023-02-20T01:22:36.148Z,46.72
2023-02-20T01:25:03.869Z,47.59
2023-02-20T01:27:31.661Z,48.06
2023-02-20T01:30:00.600Z,48.54
2023-02-20T01:32:28.124Z,48.25
2023-02-20T01:34:55.752Z,47.88
2023-02-20T01:37:23.298Z,47.12
2023-02-20T01:39:50.881Z,47.14
2023-02-20T01:42:25.187Z,45.92
2023-02-20T01:44:56.565Z,45.69
2023-02-20T01:47:24.325Z,45.49
2023-02-20T01:49:58.500Z,45.30
2023-02-20T01:52:29.100Z,45.26
2023-02-20T01:55:02.464Z,44.23
2023-02-20T01:57:36.018Z,44.62
2023-02-20T02:00:10.497Z,43.44
2023-02-20T02:02:52.218Z,43.30
2023-02-20T02:05:23.966Z,44.44
2023-02-20T02:07:55.926Z,44.61
2023-02-20T02:10:30.108Z,43.58
2023-02-20T02:12:58.526Z,44.73
2023-02-20T02:15:27.077Z,45.79
2023-02-20T02:18:03.593Z,49.73
2023-02-20T02:20:58.682Z,51.29
2023-02-20T02:23:35.140Z,52.62
2023-02-20T02:26:20.682Z,53.39
2023-02-20T02:29:11.005Z,52.78
2023-02-20T02:32:06.109Z,53.63
2023-02-20T02:34:58.590Z,54.02
2023-02-20T02:37:54.188Z,55.01
2023-02-20T02:40:33.763Z,54.68
2023-02-20T02:43:24.568Z,55.65
2023-02-20T02:46:15.645Z,55.90
2023-02-20T02:48:52.872Z,57.11
2023-02-20T02:51:26.882Z,55.33
2023-02-20T02:54:16.447Z,56.17
2023-02-20T02:56:47.390Z,57.03
2023-02-20T02:59:22.439Z,58.26
2023-02-20T03:02:01.057Z,57.79
2023-02-20T03:04:32.382Z,57.12
2023-02-20T03:07:11.487Z,56.54
2023-02-20T03:09:44.720Z,55.00
2023-02-20T03:12:14.156Z,54.30
2023-02-20T03:15:17.625Z,53.12
2023-02-20T03:18:35.010Z,55.58
2023-02-20T03:21:12.129Z,55.59
2023-02-20T03:23:44.680Z,55.47
2023-02-20T03:26:26.575Z,54.93
2023-02-20T03:29:01.173Z,55.74
2023-02-20T03:32:20.039Z,55.38
2023-02-20T03:35:09.442Z,54.64
2023-02-20T03:37:57.961Z,52.94
2023-02-20T03:40:46.291Z,52.74
2023-02-20T03:43:28.546Z,52.67
2023-02-20T03:46:12.203Z,52.80
2023-02-20T03:48:51.726Z,52.39
2023-02-20T03:51:20.477Z,51.89
2023-02-20T03:53:57.736Z,53.54
2023-02-20T03:56:35.467Z,54.78
2023-02-20T03:59:16.118Z,56.66
2023-02-20T04:01:47.668Z,58.43
2023-02-20T04:04:24.934Z,57.94
2023-02-20T04:06:54.540Z,58.62
2023-02-20T04:09:29.174Z,61.31
2023-02-20T04:12:18.440Z,61.11
2023-02-20T04:14:49.488Z,61.22
2023-02-20T04:17:24.309Z,61.47
2023-02-20T04:19:53.020Z,62.10
2023-02-20T04:22:33.526Z,63.13
2023-02-20T04:25:08.050Z,62.36
2023-02-20T04:27:36.214Z,65.39
2023-02-20T04:30:05.804Z,66.34
2023-02-20T04:32:34.413Z,65.11
2023-02-20T04:35:02.644Z,66.96
2023-02-20T04:37:30.724Z,66.22
2023-02-20T04:39:59.485Z,68.28
2023-02-20T04:42:29.151Z,68.02
2023-02-20T04:44:58.549Z,69.82
2023-02-20T04:47:26.183Z,70.52
2023-02-20T04:49:54.346Z,74.21
2023-02-20T04:52:24.884Z,76.01
2023-02-20T04:54:54.053Z,78.42
2023-02-20T04:57:23.368Z,82.63
2023-02-20T04:59:51.071Z,81.39
2023-02-20T05:02:19.129Z,73.32
2023-02-20T05:04:46.765Z,67.36
2023-02-20T05:07:16.983Z,63.22
2023-02-20T05:09:44.893Z,58.86
2023-02-20T05:12:12.487Z,55.06
2023-02-20T05:14:40.027Z,50.62
2023-02-20T05:17:07.624Z,47.05
2023-02-20T05:19:35.331Z,45.90
2023-02-20T05:22:20.886Z,47.35
2023-02-20T05:24:50.209Z,48.93
2023-02-20T05:27:20.919Z,45.81
2023-02-20T05:29:54.226Z,43.43
2023-02-20T05:32:23.721Z,42.29
2023-02-20T05:34:51.871Z,44.12
2023-02-20T05:37:21.069Z,48.85
2023-02-20T05:39:48.743Z,51.08
2023-02-20T05:42:17.867Z,47.65
2023-02-20T05:44:45.545Z,45.99
2023-02-20T05:47:13.120Z,45.48
2023-02-20T05:49:40.603Z,43.15
2023-02-20T05:52:11.990Z,40.71
2023-02-20T05:54:40.745Z,39.83
2023-02-20T05:57:09.064Z,40.79
2023-02-20T05:59:36.585Z,44.19
2023-02-20T06:02:04.282Z,47.51
2023-02-20T06:04:31.962Z,46.26
2023-02-20T06:06:59.667Z,46.36
2023-02-20T06:09:27.248Z,43.56
2023-02-20T06:11:56.636Z,40.90
2023-02-20T06:14:28.156Z,40.07
2023-02-20T06:16:58.141Z,38.90
2023-02-20T06:19:26.539Z,37.23
2023-02-20T06:21:54.676Z,35.57
2023-02-20T06:24:22.573Z,33.61
2023-02-20T06:26:50.595Z,32.35
2023-02-20T06:29:19.268Z,31.57
2023-02-20T06:31:47.007Z,30.67
2023-02-20T06:34:15.773Z,29.99
2023-02-20T06:36:43.621Z,29.48
2023-02-20T06:39:13.316Z,29.49
2023-02-20T06:41:41.283Z,27.63
2023-02-20T06:44:09.155Z,27.19
2023-02-20T06:46:36.946Z,26.76
2023-02-20T06:49:04.474Z,27.97
2023-02-20T06:51:34.588Z,30.15
2023-02-20T06:54:03.448Z,28.55
2023-02-20T06:56:34.238Z,27.81
2023-02-20T06:59:03.489Z,26.80
2023-02-20T07:01:37.451Z,25.02
2023-02-20T07:04:05.526Z,24.94
2023-02-20T07:06:33.083Z,25.40
2023-02-20T07:09:00.795Z,24.84
2023-02-20T07:11:28.382Z,29.65
2023-02-20T07:13:57.996Z,27.28
2023-02-20T07:16:25.617Z,28.25
2023-02-20T07:18:53.122Z,26.35
2023-02-20T07:21:20.703Z,25.46
2023-02-20T07:23:48.795Z,25.24
2023-02-20T07:26:21.320Z,25.12
2023-02-20T07:28:49.188Z,26.44
2023-02-20T07:31:16.850Z,24.79
2023-02-20T07:33:44.524Z,24.71
2023-02-20T07:36:13.144Z,25.59
2023-02-20T07:38:41.182Z,25.83
2023-02-20T07:41:09.565Z,24.68
2023-02-20T07:43:37.114Z,25.25
2023-02-20T07:46:06.034Z,26.37
2023-02-20T07:48:34.931Z,25.25
2023-02-20T07:51:02.405Z,24.02
2023-02-20T07:53:30.127Z,23.77
2023-02-20T07:55:57.683Z,23.42
2023-02-20T07:58:25.595Z,23.13
2023-02-20T08:00:54.371Z,22.98
2023-02-20T08:03:22.022Z,22.98
2023-02-20T08:05:50.151Z,23.69
2023-02-20T08:08:18.042Z,23.25
2023-02-20T08:10:45.632Z,22.81
2023-02-20T08:13:13.223Z,22.20
2023-02-20T08:15:42.187Z,24.32
2023-02-20T08:18:22.094Z,24.35
2023-02-20T08:20:52.400Z,25.75
2023-02-20T08:23:23.314Z,26.26
2023-02-20T08:25:52.234Z,25.07
2023-02-20T08:28:21.070Z,24.53
2023-02-20T08:30:49.039Z,24.21
2023-02-20T08:33:16.520Z,24.81
2023-02-20T08:35:44.228Z,25.62
2023-02-20T08:38:30.130Z,26.02
2023-02-20T08:40:58.964Z,25.64
2023-02-20T08:43:28.131Z,25.29
2023-02-20T08:45:56.987Z,25.56
2023-02-20T08:48:24.882Z,25.35
2023-02-20T08:50:52.566Z,25.53
2023-02-20T08:53:20.586Z,25.92
2023-02-20T08:55:48.174Z,26.15
2023-02-20T08:58:20.756Z,25.88
2023-02-20T09:00:48.368Z,26.01
2023-02-20T09:03:15.976Z,26.37
2023-02-20T09:05:44.341Z,27.04
2023-02-20T09:08:12.185Z,27.34
2023-02-20T09:10:39.808Z,27.97
2023-02-20T09:13:07.776Z,28.98
2023-02-20T09:15:40.075Z,28.67
2023-02-20T09:18:10.406Z,28.66
2023-02-20T09:20:38.760Z,28.83
2023-02-20T09:23:06.926Z,29.79
2023-02-20T09:25:34.906Z,30.04
2023-02-20T09:28:02.499Z,30.13
2023-02-20T09:30:30.442Z,30.78
2023-02-20T09:32:58.175Z,31.44
2023-02-20T09:35:31.108Z,30.85
2023-02-20T09:37:59.166Z,31.03
2023-02-20T09:40:31.172Z,30.96
2023-02-20T09:43:19.935Z,31.19
2023-02-20T09:46:17.044Z,31.15
2023-02-20T09:49:13.355Z,31.29
2023-02-20T09:52:02.157Z,31.32
2023-02-20T09:54:41.669Z,32.75
2023-02-20T09:57:20.926Z,36.52
2023-02-20T09:59:53.566Z,35.79
2023-02-20T10:02:30.312Z,39.68
2023-02-20T10:05:03.106Z,37.10
2023-02-20T10:07:38.658Z,36.17
2023-02-20T10:10:28.135Z,35.50
2023-02-20T10:13:04.927Z,34.36
2023-02-20T10:15:47.560Z,34.65
2023-02-20T10:18:24.124Z,35.37
2023-02-20T10:21:05.941Z,35.52
2023-02-20T10:24:03.774Z,34.57
2023-02-20T10:26:42.586Z,34.31
2023-02-20T10:29:21.677Z,34.37
2023-02-20T10:31:52.564Z,35.14
2023-02-20T10:34:30.176Z,35.90
2023-02-20T10:37:06.927Z,36.17
2023-02-20T10:39:36.756Z,36.95
2023-02-20T10:42:31.349Z,37.97
2023-02-20T10:45:54.699Z,38.57
2023-02-20T10:48:27.387Z,38.13
2023-02-20T10:51:10.455Z,38.95
2023-02-20T10:53:43.224Z,38.35
2023-02-20T10:56:50.632Z,41.10
2023-02-20T10:59:26.634Z,38.85
2023-02-20T11:01:58.485Z,40.60
2023-02-20T11:04:38.361Z,45.95
2023-02-20T11:07:12.568Z,44.54
2023-02-20T11:09:41.601Z,43.54
2023-02-20T11:12:43.124Z,44.79
2023-02-20T11:15:15.100Z,46.02
2023-02-20T11:17:43.073Z,47.79
2023-02-20T11:21:01.328Z,47.60
2023-02-20T11:23:36.995Z,45.26
2023-02-20T11:26:29.956Z,47.08
2023-02-20T11:29:05.196Z,43.83
2023-02-20T11:31:35.123Z,47.73
2023-02-20T11:34:06.079Z,50.28
2023-02-20T11:36:46.776Z,50.05
2023-02-20T11:39:30.325Z,48.79
2023-02-20T11:42:13.091Z,47.54
2023-02-20T11:44:40.939Z,44.90
2023-02-20T11:47:28.916Z,48.04
2023-02-20T11:50:19.027Z,47.09
2023-02-20T11:53:02.582Z,46.09
2023-02-20T11:55:30.210Z,47.52
2023-02-20T11:57:58.227Z,47.96
2023-02-20T12:00:28.949Z,50.39
2023-02-20T12:03:13.609Z,49.86
2023-02-20T12:05:45.160Z,49.21
2023-02-20T12:08:39.078Z,44.88
2023-02-20T12:11:16.680Z,47.89
2023-02-20T12:13:49.907Z,45.71
2023-02-20T12:16:49.523Z,47.91
2023-02-20T12:19:19.545Z,46.82
2023-02-20T12:22:20.646Z,48.05
2023-02-20T12:25:01.620Z,50.32
2023-02-20T12:27:36.081Z,53.24
2023-02-20T12:30:39.136Z,53.18
2023-02-20T12:33:07.450Z,52.98
2023-02-20T12:35:38.627Z,53.66
2023-02-20T12:38:32.626Z,55.96
2023-02-20T12:41:21.351Z,57.10
2023-02-20T12:44:18.087Z,56.47
2023-02-20T12:46:58.858Z,56.72
2023-02-20T12:49:59.557Z,55.79
2023-02-20T12:52:36.338Z,57.13
2023-02-20T12:55:47.384Z,57.76
2023-02-20T12:58:23.532Z,56.39
2023-02-20T13:00:54.877Z,58.91
2023-02-20T13:03:41.965Z,61.45
2023-02-20T13:06:12.386Z,62.72
2023-02-20T13:08:54.196Z,62.92
2023-02-20T13:11:26.861Z,63.20
2023-02-20T13:14:23.899Z,62.75
2023-02-20T13:17:21.948Z,64.75
2023-02-20T13:20:08.782Z,67.85
2023-02-20T13:22:36.484Z,68.61
2023-02-20T13:25:32.002Z,68.70
2023-02-20T13:28:22.917Z,68.70
2023-02-20T13:31:09.256Z,66.46
2023-02-20T13:33:37.779Z,65.45
2023-02-20T13:36:06.828Z,67.50
2023-02-20T13:38:34.473Z,68.08
2023-02-20T13:41:07.900Z,68.79
2023-02-20T13:43:37.490Z,68.83
2023-02-20T13:46:08.216Z,66.23
2023-02-20T13:48:36.127Z,64.75
2023-02-20T13:51:18.571Z,64.12
2023-02-20T13:53:52.227Z,60.78
2023-02-20T13:56:26.234Z,59.75
2023-02-20T13:58:59.756Z,62.05
2023-02-20T14:01:27.409Z,60.42
2023-02-20T14:04:05.011Z,60.64
2023-02-20T14:06:32.874Z,62.86
2023-02-20T14:09:19.245Z,64.25
2023-02-20T14:11:46.998Z,63.72
2023-02-20T14:14:45.792Z,66.33
2023-02-20T14:17:23.151Z,67.38
2023-02-20T14:20:08.493Z,66.21
2023-02-20T14:22:40.275Z,67.05
2023-02-20T14:25:27.652Z,68.82
2023-02-20T14:28:08.408Z,67.35
2023-02-20T14:30:36.201Z,66.26
2023-02-20T14:33:10.373Z,67.01
2023-02-20T14:35:58.184Z,67.88
2023-02-20T14:38:58.478Z,68.02
2023-02-20T14:41:26.117Z,66.25
2023-02-20T14:44:02.046Z,66.82
2023-02-20T14:46:33.264Z,63.10
2023-02-20T14:49:06.921Z,61.03
2023-02-20T14:51:34.534Z,61.10
2023-02-20T14:54:17.206Z,62.19
2023-02-20T14:56:46.352Z,64.01
2023-02-20T14:59:27.463Z,64.67
2023-02-20T15:02:05.214Z,63.13
2023-02-20T15:04:33.157Z,61.76
2023-02-20T15:07:07.444Z,63.69
2023-02-20T15:09:40.565Z,63.84
2023-02-20T15:12:19.312Z,64.08
2023-02-20T15:14:58.090Z,65.06
2023-02-20T15:17:29.796Z,65.39
2023-02-20T15:19:58.739Z,65.70
2023-02-20T15:22:34.358Z,65.68
2023-02-20T15:25:25.400Z,66.00
2023-02-20T15:28:14.426Z,66.35
2023-02-20T15:31:04.756Z,64.05
2023-02-20T15:33:38.708Z,63.78
2023-02-20T15:36:07.916Z,63.35
2023-02-20T15:38:42.177Z,63.53
2023-02-20T15:41:11.823Z,64.14
2023-02-20T15:43:49.652Z,65.13
2023-02-20T15:46:18.875Z,65.77
2023-02-20T15:48:46.928Z,67.02
2023-02-20T15:51:20.666Z,68.10
2023-02-20T15:53:49.203Z,69.30
2023-02-20T15:56:18.451Z,69.99
2023-02-20T15:58:47.557Z,70.63
2023-02-20T16:01:15.281Z,70.52
2023-02-20T16:03:52.011Z,68.38
2023-02-20T16:06:22.555Z,67.89
2023-02-20T16:08:51.187Z,67.83
2023-02-20T16:11:25.946Z,68.35
2023-02-20T16:13:57.937Z,66.66
2023-02-20T16:16:55.158Z,66.91
2023-02-20T16:19:36.696Z,67.79
2023-02-20T16:22:11.461Z,66.62
2023-02-20T16:24:40.542Z,67.76
2023-02-20T16:27:30.782Z,69.02
2023-02-20T16:29:58.887Z,69.56
2023-02-20T16:32:28.917Z,66.27
2023-02-20T16:34:59.044Z,65.51
2023-02-20T16:37:28.365Z,62.50
2023-02-20T16:39:56.067Z,63.87
2023-02-20T16:42:30.163Z,64.71
2023-02-20T16:44:59.115Z,63.29
2023-02-20T16:47:31.284Z,65.83
2023-02-20T16:50:01.856Z,66.69
2023-02-20T16:52:37.400Z,67.18
2023-02-20T16:55:19.058Z,66.63
2023-02-20T16:57:47.181Z,66.31
2023-02-20T17:00:19.022Z,67.03
2023-02-20T17:02:49.004Z,66.89
2023-02-20T17:05:16.709Z,68.01
2023-02-20T17:07:44.567Z,68.54
2023-02-20T17:10:15.247Z,67.50
2023-02-20T17:12:43.156Z,68.08
2023-02-20T17:15:16.215Z,69.80
2023-02-20T17:17:44.726Z,71.11
2023-02-20T17:20:18.198Z,71.52
2023-02-20T17:22:52.820Z,71.05
2023-02-20T17:25:26.474Z,72.58
2023-02-20T17:27:54.145Z,73.42
2023-02-20T17:30:24.139Z,74.91
2023-02-20T17:32:52.461Z,75.40
2023-02-20T17:35:20.149Z,74.56
2023-02-20T17:37:47.713Z,75.11
2023-02-20T17:40:16.750Z,74.84
2023-02-20T17:42:44.378Z,74.70
2023-02-20T17:45:12.261Z,73.42
2023-02-20T17:47:39.866Z,73.66
2023-02-20T17:50:08.033Z,74.31
2023-02-20T17:52:35.670Z,74.18
2023-02-20T17:55:03.418Z,72.68
2023-02-20T17:57:33.355Z,70.56
2023-02-20T18:00:01.132Z,69.46
2023-02-20T18:02:31.608Z,69.11
2023-02-20T18:05:00.443Z,68.78
2023-02-20T18:07:28.290Z,68.81
2023-02-20T18:09:57.528Z,69.24
2023-02-20T18:12:25.108Z,69.85
2023-02-20T18:14:53.583Z,69.02
2023-02-20T18:17:22.511Z,68.99
2023-02-20T18:19:50.134Z,66.96
2023-02-20T18:22:17.853Z,67.25
2023-02-20T18:24:45.427Z,66.03
2023-02-20T18:27:13.095Z,67.04
2023-02-20T18:29:40.760Z,67.35
2023-02-20T18:32:09.653Z,66.53
2023-02-20T18:34:37.456Z,67.11
2023-02-20T18:37:05.023Z,68.21
2023-02-20T18:39:32.883Z,69.16
2023-02-20T18:42:00.495Z,70.61
2023-02-20T18:44:28.243Z,71.86
2023-02-20T18:46:56.017Z,71.61
2023-02-20T18:49:23.494Z,72.45
2023-02-20T18:51:51.004Z,73.01
2023-02-20T18:54:22.596Z,74.26
2023-02-20T18:56:51.764Z,73.74
2023-02-20T18:59:20.175Z,73.80
2023-02-20T19:01:47.765Z,73.45
2023-02-20T19:04:16.124Z,73.25
2023-02-20T19:06:47.343Z,72.31
2023-02-20T19:09:21.242Z,72.39
2023-02-20T19:11:49.617Z,73.25
2023-02-20T19:14:17.450Z,71.82
2023-02-20T19:16:52.942Z,71.40
2023-02-20T19:19:24.122Z,70.38
2023-02-20T19:21:53.541Z,71.55
2023-02-20T19:24:22.404Z,73.56
2023-02-20T19:26:50.735Z,74.58
2023-02-20T19:29:18.360Z,74.95
2023-02-20T19:31:46.056Z,76.34
2023-02-20T19:34:15.026Z,75.65
2023-02-20T19:36:43.113Z,75.98
2023-02-20T19:39:10.734Z,75.79
2023-02-20T19:41:39.742Z,76.08
2023-02-20T19:44:08.087Z,76.38
2023-02-20T19:46:35.861Z,75.97
2023-02-20T19:49:10.116Z,76.09
2023-02-20T19:51:37.729Z,76.94
2023-02-20T19:54:05.366Z,75.68
2023-02-20T19:56:33.149Z,76.23
2023-02-20T19:59:00.719Z,76.47
2023-02-20T20:01:28.390Z,76.85
2023-02-20T20:03:55.948Z,76.03
2023-02-20T20:06:27.206Z,76.18
2023-02-20T20:09:11.677Z,77.46
2023-02-20T20:11:42.399Z,79.06
2023-02-20T20:14:10.213Z,79.36
2023-02-20T20:16:38.103Z,78.79
2023-02-20T20:19:06.612Z,77.71
2023-02-20T20:21:34.644Z,73.18
2023-02-20T20:24:02.541Z,72.04
2023-02-20T20:26:32.390Z,70.83
2023-02-20T20:29:00.863Z,69.71
2023-02-20T20:31:33.597Z,68.18
2023-02-20T20:34:01.122Z,68.52
2023-02-20T20:36:28.782Z,66.98
2023-02-20T20:38:56.320Z,65.43
2023-02-20T20:41:25.071Z,65.61
2023-02-20T20:43:54.061Z,64.67
2023-02-20T20:46:21.784Z,63.68
2023-02-20T20:48:49.354Z,63.22
2023-02-20T20:51:18.438Z,62.83
2023-02-20T20:53:46.327Z,62.45
2023-02-20T20:56:13.977Z,62.89
2023-02-20T20:58:41.596Z,63.88
2023-02-20T21:01:09.173Z,63.92
2023-02-20T21:03:36.876Z,64.52
2023-02-20T21:06:04.524Z,65.41
2023-02-20T21:08:34.103Z,65.28
2023-02-20T21:11:01.690Z,64.82
2023-02-20T21:13:29.310Z,63.47
2023-02-20T21:15:57.276Z,64.32
2023-02-20T21:18:24.928Z,64.41
2023-02-20T21:20:52.553Z,64.84
2023-02-20T21:23:20.074Z,65.92
2023-02-20T21:25:47.753Z,65.58
2023-02-20T21:28:15.246Z,64.31
2023-02-20T21:30:43.049Z,65.19
2023-02-20T21:33:10.637Z,65.06
2023-02-20T21:35:38.226Z,66.19
2023-02-20T21:38:05.962Z,67.27
2023-02-20T21:40:34.689Z,68.69
2023-02-20T21:43:25.221Z,68.78
2023-02-20T21:45:52.757Z,69.98
2023-02-20T21:48:20.221Z,70.95
2023-02-20T21:50:48.008Z,70.97
2023-02-20T21:53:17.217Z,72.03
2023-02-20T21:55:45.408Z,72.02
2023-02-20T21:58:13.271Z,73.30
2023-02-20T22:00:40.715Z,73.00
2023-02-20T22:03:08.276Z,72.27
2023-02-20T22:05:35.789Z,71.81
2023-02-20T22:08:21.586Z,73.56
2023-02-20T22:11:07.333Z,74.06
2023-02-20T22:13:55.021Z,74.03
2023-02-20T22:16:40.975Z,74.19
2023-02-20T22:19:26.738Z,74.76
2023-02-20T22:22:13.061Z,74.41
2023-02-20T22:24:58.824Z,74.98
2023-02-20T22:27:44.910Z,73.03
2023-02-20T22:30:30.628Z,73.19
2023-02-20T22:33:16.651Z,72.27
2023-02-20T22:36:02.668Z,72.09
2023-02-20T22:38:48.483Z,71.06
2023-02-20T22:41:39.375Z,69.31
2023-02-20T22:44:25.088Z,68.86
2023-02-20T22:47:11.111Z,68.73
2023-02-20T22:49:56.873Z,65.17
2023-02-20T22:52:42.767Z,66.33
2023-02-20T22:55:31.067Z,65.16
2023-02-20T22:58:17.029Z,65.50
2023-02-20T23:01:03.610Z,65.49
2023-02-20T23:03:49.454Z,65.13
2023-02-20T23:06:39.839Z,65.07
2023-02-20T23:09:26.837Z,66.00
2023-02-20T23:12:13.707Z,67.13
2023-02-20T23:15:00.461Z,67.18
2023-02-20T23:17:46.737Z,68.56
2023-02-20T23:20:38.843Z,65.58
2023-02-20T23:23:26.050Z,64.24
2023-02-20T23:26:13.294Z,62.92
2023-02-20T23:28:59.141Z,62.81
2023-02-20T23:31:57.358Z,65.35
2023-02-20T23:34:43.981Z,68.96
2023-02-20T23:37:30.479Z,69.92
2023-02-20T23:40:21.233Z,68.57
2023-02-20T23:43:11.176Z,67.79
2023-02-20T23:45:57.140Z,67.76
2023-02-20T23:48:43.173Z,68.46
2023-02-20T23:51:30.463Z,66.24
2023-02-20T23:54:16.797Z,64.67
2023-02-20T23:57:02.913Z,67.11
2023-02-20T23:59:49.121Z,66.38
